Terminal Aerodrome Forecast
Issued by NWS Memphis, TN

Home | Current Version | Previous Version | Text Only | Print | Product List | Glossary On
Versions: 1 2 3 4 5 6 7 8 9 10 11 12
000
FTUS44 KMEG 012330
TAFJBR
TAF
KJBR 012330Z 0200/0224 20012KT P6SM BKN100
     FM020900 21010KT P6SM VCTS SCT040CB OVC100
      TEMPO 0210/0214 3SM TSRA BKN040CB
     FM021400 20010G15KT P6SM -SHRA VCTS SCT025 BKN040CB
     FM021800 22016KT P6SM VCTS OVC050CB
     FM022100 24015KT P6SM OVC100=

USA.gov is the U.S. government's official web portal to all federal, state and local government web resources and services.